CheckWX is a tool to help pilots better visualize weather data.  It is not intended as a substitute for an official pre-flight weather briefing.

12:05:25 UTC

KGRR TAF
Gerald R Ford International Airport
Grand Rapids, Michigan, USA
KGRR 261140Z 2612/2712 28008KT P6SM SKC FM262000 27012G20KT P6SM SKC FM270100 VRB04KT P6SM SKC

Jun-26@
12:00 UTC

Jun-26 @ 12:00 UTC

Jun-26@
20:00 UTC

Jun-26 @ 20:00 UTC

KGRR 261140Z 2612/2712 28008KT P6SM SKC
Wind
  • 280° at 8 KTS
Cloud Levels
  • Clear skies

Jun-26@
20:00 UTC

Jun-26 @ 20:00 UTC

Jun-27@
01:00 UTC

Jun-27 @ 01:00 UTC

FM262000 27012G20KT P6SM SKC

From

From Standard forecast or significant change

Wind
  • 270° at 12 KTS
  • {Gusting to 20 KTS
Cloud Levels
  • Clear skies

Jun-27@
01:00 UTC

Jun-27 @ 01:00 UTC

Jun-27@
12:00 UTC

Jun-27 @ 12:00 UTC

FM270100 VRB04KT P6SM SKC

From

From Standard forecast or significant change

Wind
  • Variable at 4 KTS
Cloud Levels
  • Clear skies